createdAt,value
2023-01-21T00:01:47.526Z,100134.25
2023-01-21T00:04:15.187Z,100139.81
2023-01-21T00:06:43.293Z,100136.13
2023-01-21T00:09:10.975Z,100135.72
2023-01-21T00:11:38.600Z,100146.47
2023-01-21T00:14:07.625Z,100146.56
2023-01-21T00:16:35.421Z,100150.09
2023-01-21T00:19:03.060Z,100155.06
2023-01-21T00:21:30.639Z,100155.47
2023-01-21T00:23:58.230Z,100154.03
2023-01-21T00:26:25.955Z,100158.41
2023-01-21T00:28:53.617Z,100162.88
2023-01-21T00:31:22.604Z,100167.81
2023-01-21T00:33:50.398Z,100159.25
2023-01-21T00:36:18.693Z,100168.13
2023-01-21T00:38:49.744Z,100170.13
2023-01-21T00:41:18.146Z,100180.31
2023-01-21T00:43:45.900Z,100174.97
2023-01-21T00:46:13.533Z,100185.41
2023-01-21T00:48:42.588Z,100182.66
2023-01-21T00:51:11.044Z,100185.56
2023-01-21T00:53:41.814Z,100187.25
2023-01-21T00:56:12.708Z,100190.13
2023-01-21T00:58:43.248Z,100206.84
2023-01-21T01:01:12.978Z,100193.88
2023-01-21T01:03:42.392Z,100203.16
2023-01-21T01:06:12.548Z,100210.03
2023-01-21T01:08:40.591Z,100217.75
2023-01-21T01:11:08.232Z,100222.75
2023-01-21T01:13:36.946Z,100213.19
2023-01-21T01:16:05.474Z,100229.81
2023-01-21T01:18:35.084Z,100232.03
2023-01-21T01:21:06.212Z,100242.97
2023-01-21T01:23:33.867Z,100247.25
2023-01-21T01:26:03.282Z,100251.78
2023-01-21T01:28:32.210Z,100258.19
2023-01-21T01:31:00.196Z,100259.16
2023-01-21T01:33:28.532Z,100266.91
2023-01-21T01:35:56.135Z,100264.22
2023-01-21T01:38:25.035Z,100279.47
2023-01-21T01:40:53.675Z,100287.91
2023-01-21T01:43:24.309Z,100281.50
2023-01-21T01:45:52.797Z,100287.19
2023-01-21T01:48:24.530Z,100290.34
2023-01-21T01:50:52.624Z,100301.84
2023-01-21T01:53:20.787Z,100295.06
2023-01-21T01:55:50.194Z,100305.13
2023-01-21T01:58:20.136Z,100305.13
2023-01-21T02:00:47.839Z,100313.69
2023-01-21T02:03:33.769Z,100314.03
2023-01-21T02:06:01.672Z,100324.81
2023-01-21T02:08:30.321Z,100315.41
2023-01-21T02:11:00.939Z,100316.63
2023-01-21T02:13:31.529Z,100329.28
2023-01-21T02:16:14.827Z,100332.19
2023-01-21T02:18:51.750Z,100338.16
2023-01-21T02:21:48.897Z,100337.63
2023-01-21T02:24:50.409Z,100333.00
2023-01-21T02:27:35.309Z,100338.34
2023-01-21T02:30:31.577Z,100338.69
2023-01-21T02:33:15.651Z,100347.81
2023-01-21T02:35:50.538Z,100348.50
2023-01-21T02:38:26.132Z,100346.50
2023-01-21T02:41:03.784Z,100350.50
2023-01-21T02:43:40.980Z,100345.09
2023-01-21T02:46:17.330Z,100351.81
2023-01-21T02:48:51.302Z,100356.63
2023-01-21T02:51:20.371Z,100365.88
2023-01-21T02:53:48.697Z,100372.06
2023-01-21T02:56:20.093Z,100370.53
2023-01-21T02:58:51.629Z,100368.31
2023-01-21T03:01:27.532Z,100367.44
2023-01-21T03:04:08.690Z,100373.38
2023-01-21T03:06:50.155Z,100377.28
2023-01-21T03:09:23.275Z,100379.41
2023-01-21T03:12:00.892Z,100374.41
2023-01-21T03:14:50.250Z,100379.28
2023-01-21T03:17:25.821Z,100377.91
2023-01-21T03:20:00.768Z,100383.53
2023-01-21T03:22:34.926Z,100390.69
2023-01-21T03:25:04.167Z,100382.56
2023-01-21T03:27:34.025Z,100386.16
2023-01-21T03:30:07.159Z,100389.38
2023-01-21T03:32:36.809Z,100394.91
2023-01-21T03:35:08.668Z,100394.16
2023-01-21T03:37:41.780Z,100402.34
2023-01-21T03:40:20.061Z,100411.09
2023-01-21T03:42:50.392Z,100405.03
2023-01-21T03:45:22.904Z,100415.03
2023-01-21T03:47:55.815Z,100407.09
2023-01-21T03:50:31.034Z,100409.81
2023-01-21T03:52:58.766Z,100416.69
2023-01-21T03:55:26.409Z,100415.84
2023-01-21T03:57:54.169Z,100424.50
2023-01-21T04:00:22.248Z,100420.78
2023-01-21T04:02:49.857Z,100425.75
2023-01-21T04:05:17.634Z,100427.03
2023-01-21T04:07:46.527Z,100433.47
2023-01-21T04:10:14.443Z,100429.41
2023-01-21T04:12:42.167Z,100435.44
2023-01-21T04:15:11.159Z,100436.28
2023-01-21T04:17:38.791Z,100442.66
2023-01-21T04:20:08.383Z,100441.84
2023-01-21T04:22:38.074Z,100448.00
2023-01-21T04:25:07.454Z,100456.81
2023-01-21T04:27:35.029Z,100459.22
2023-01-21T04:30:02.584Z,100463.91
2023-01-21T04:32:30.118Z,100460.94
2023-01-21T04:34:57.654Z,100464.22
2023-01-21T04:37:25.408Z,100460.25
2023-01-21T04:39:53.139Z,100462.19
2023-01-21T04:42:22.222Z,100459.88
2023-01-21T04:44:49.768Z,100455.66
2023-01-21T04:47:17.363Z,100466.19
2023-01-21T04:49:44.984Z,100474.94
2023-01-21T04:52:12.626Z,100478.25
2023-01-21T04:54:40.236Z,100476.50
2023-01-21T04:57:07.785Z,100479.69
2023-01-21T04:59:36.891Z,100483.25
2023-01-21T05:02:04.865Z,100473.38
2023-01-21T05:04:32.830Z,100480.00
2023-01-21T05:07:00.494Z,100483.09
2023-01-21T05:09:28.108Z,100490.25
2023-01-21T05:11:55.756Z,100491.47
2023-01-21T05:14:23.401Z,100486.28
2023-01-21T05:16:52.388Z,100493.00
2023-01-21T05:19:20.168Z,100492.09
2023-01-21T05:21:47.878Z,100504.81
2023-01-21T05:24:15.864Z,100498.38
2023-01-21T05:26:43.537Z,100509.19
2023-01-21T05:29:11.844Z,100519.53
2023-01-21T05:31:39.676Z,100518.13
2023-01-21T05:34:08.873Z,100523.06
2023-01-21T05:36:36.566Z,100529.91
2023-01-21T05:39:04.648Z,100531.09
2023-01-21T05:41:32.867Z,100533.03
2023-01-21T05:44:00.485Z,100536.19
2023-01-21T05:46:28.126Z,100547.53
2023-01-21T05:48:55.691Z,100536.09
2023-01-21T05:51:24.638Z,100544.41
2023-01-21T05:53:52.278Z,100548.72
2023-01-21T05:56:19.888Z,100552.72
2023-01-21T05:58:47.623Z,100556.75
2023-01-21T06:01:15.181Z,100561.19
2023-01-21T06:03:42.808Z,100555.84
2023-01-21T06:06:10.380Z,100571.56
2023-01-21T06:08:39.262Z,100568.22
2023-01-21T06:11:06.826Z,100574.06
2023-01-21T06:13:34.395Z,100578.47
2023-01-21T06:16:01.961Z,100581.22
2023-01-21T06:18:29.889Z,100581.31
2023-01-21T06:20:59.950Z,100585.34
2023-01-21T06:23:28.347Z,100587.56
2023-01-21T06:26:01.503Z,100587.53
2023-01-21T06:28:29.603Z,100585.31
2023-01-21T06:30:57.685Z,100593.97
2023-01-21T06:33:25.445Z,100602.84
2023-01-21T06:35:53.015Z,100604.69
2023-01-21T06:38:20.601Z,100608.34
2023-01-21T06:40:48.237Z,100602.09
2023-01-21T06:43:17.164Z,100604.47
2023-01-21T06:45:45.015Z,100606.81
2023-01-21T06:48:12.576Z,100613.16
2023-01-21T06:50:40.124Z,100623.56
2023-01-21T06:53:07.722Z,100622.88
2023-01-21T06:55:35.321Z,100631.28
2023-01-21T06:58:03.485Z,100633.50
2023-01-21T07:00:32.601Z,100644.50
2023-01-21T07:03:01.209Z,100633.94
2023-01-21T07:05:29.229Z,100639.09
2023-01-21T07:07:57.803Z,100643.50
2023-01-21T07:10:26.148Z,100650.38
2023-01-21T07:12:53.708Z,100647.91
2023-01-21T07:15:21.435Z,100649.34
2023-01-21T07:17:50.483Z,100653.34
2023-01-21T07:20:18.729Z,100647.78
2023-01-21T07:22:46.298Z,100645.03
2023-01-21T07:25:13.848Z,100658.75
2023-01-21T07:27:42.466Z,100656.34
2023-01-21T07:30:16.183Z,100667.72
2023-01-21T07:32:44.166Z,100670.34
2023-01-21T07:35:13.380Z,100665.25
2023-01-21T07:37:41.202Z,100675.63
2023-01-21T07:40:10.200Z,100675.78
2023-01-21T07:42:37.744Z,100675.28
2023-01-21T07:45:06.205Z,100684.13
2023-01-21T07:47:33.840Z,100679.41
2023-01-21T07:50:04.850Z,100681.44
2023-01-21T07:52:34.194Z,100686.28
2023-01-21T07:55:02.133Z,100680.75
2023-01-21T07:57:29.755Z,100687.97
2023-01-21T07:59:57.301Z,100696.38
2023-01-21T08:02:25.509Z,100695.06
2023-01-21T08:04:53.209Z,100702.28
2023-01-21T08:07:20.759Z,100697.88
2023-01-21T08:09:49.699Z,100697.00
2023-01-21T08:12:17.382Z,100701.53
2023-01-21T08:14:45.130Z,100701.81
2023-01-21T08:17:12.840Z,100705.06
2023-01-21T08:19:40.465Z,100704.75
2023-01-21T08:22:07.997Z,100709.09
2023-01-21T08:24:35.522Z,100709.50
2023-01-21T08:27:04.586Z,100705.06
2023-01-21T08:29:32.157Z,100715.66
2023-01-21T08:31:59.799Z,100716.22
2023-01-21T08:34:27.724Z,100724.97
2023-01-21T08:36:55.273Z,100720.44
2023-01-21T08:39:22.817Z,100721.44
2023-01-21T08:41:50.406Z,100735.28
2023-01-21T08:44:19.400Z,100731.44
2023-01-21T08:46:46.987Z,100742.69
2023-01-21T08:49:14.558Z,100738.78
2023-01-21T08:51:42.673Z,100737.69
2023-01-21T08:54:10.258Z,100749.94
2023-01-21T08:56:37.827Z,100746.22
2023-01-21T08:59:05.737Z,100746.38
2023-01-21T09:01:36.147Z,100743.84
2023-01-21T09:04:03.746Z,100743.94
2023-01-21T09:06:31.327Z,100737.53
2023-01-21T09:08:59.313Z,100737.69
2023-01-21T09:11:27.622Z,100746.53
2023-01-21T09:13:56.787Z,100738.97
2023-01-21T09:16:24.426Z,100742.94
2023-01-21T09:18:53.321Z,100744.25
2023-01-21T09:21:20.959Z,100750.97
2023-01-21T09:23:48.609Z,100751.88
2023-01-21T09:26:17.613Z,100745.16
2023-01-21T09:28:47.705Z,100748.50
2023-01-21T09:31:18.185Z,100755.28
2023-01-21T09:33:48.173Z,100752.09
2023-01-21T09:36:19.635Z,100755.09
2023-01-21T09:38:48.602Z,100758.53
2023-01-21T09:41:24.413Z,100767.50
2023-01-21T09:43:59.948Z,100764.34
2023-01-21T09:46:35.989Z,100767.69
2023-01-21T09:49:06.662Z,100764.41
2023-01-21T09:51:52.197Z,100769.03
2023-01-21T09:54:26.609Z,100763.34
2023-01-21T09:57:29.485Z,100776.94
2023-01-21T10:00:09.664Z,100780.41
2023-01-21T10:02:44.449Z,100791.94
2023-01-21T10:05:40.419Z,100791.00
2023-01-21T10:08:19.054Z,100793.72
2023-01-21T10:10:51.621Z,100789.53
2023-01-21T10:13:41.393Z,100796.88
2023-01-21T10:16:15.324Z,100795.09
2023-01-21T10:18:46.872Z,100792.25
2023-01-21T10:21:29.954Z,100791.63
2023-01-21T10:24:04.465Z,100788.00
2023-01-21T10:26:35.377Z,100791.22
2023-01-21T10:29:03.669Z,100799.78
2023-01-21T10:31:35.084Z,100793.38
2023-01-21T10:34:03.388Z,100792.28
2023-01-21T10:36:51.551Z,100796.88
2023-01-21T10:39:32.762Z,100793.44
2023-01-21T10:42:29.559Z,100790.38
2023-01-21T10:45:02.598Z,100794.34
2023-01-21T10:47:39.774Z,100790.91
2023-01-21T10:50:29.546Z,100790.53
2023-01-21T10:53:02.027Z,100792.81
2023-01-21T10:55:41.937Z,100785.75
2023-01-21T10:58:21.147Z,100785.97
2023-01-21T11:00:50.958Z,100789.22
2023-01-21T11:03:28.719Z,100782.66
2023-01-21T11:05:56.579Z,100783.41
2023-01-21T11:08:27.006Z,100784.47
2023-01-21T11:10:57.776Z,100793.09
2023-01-21T11:13:25.472Z,100790.84
2023-01-21T11:15:55.649Z,100783.16
2023-01-21T11:18:29.231Z,100791.19
2023-01-21T11:20:59.675Z,100793.25
2023-01-21T11:23:29.896Z,100795.06
2023-01-21T11:26:10.120Z,100787.69
2023-01-21T11:28:38.020Z,100796.13
2023-01-21T11:31:10.984Z,100796.50
2023-01-21T11:33:40.309Z,100789.09
2023-01-21T11:36:14.004Z,100779.13
2023-01-21T11:38:43.067Z,100787.09
2023-01-21T11:41:22.341Z,100790.16
2023-01-21T11:43:52.271Z,100783.88
2023-01-21T11:46:38.543Z,100795.56
2023-01-21T11:49:29.024Z,100788.94
2023-01-21T11:52:16.767Z,100791.00
2023-01-21T11:54:44.665Z,100787.69
2023-01-21T11:57:30.292Z,100793.06
2023-01-21T12:00:07.502Z,100794.53
2023-01-21T12:02:40.832Z,100794.28
2023-01-21T12:05:15.391Z,100800.56
2023-01-21T12:07:44.337Z,100790.00
2023-01-21T12:10:25.591Z,100779.53
2023-01-21T12:13:09.676Z,100780.19
2023-01-21T12:15:49.814Z,100779.06
2023-01-21T12:18:27.323Z,100783.41
2023-01-21T12:21:02.811Z,100779.22
2023-01-21T12:23:43.939Z,100790.75
2023-01-21T12:26:25.465Z,100794.13
2023-01-21T12:29:11.488Z,100784.03
2023-01-21T12:31:43.586Z,100784.09
2023-01-21T12:34:17.533Z,100782.50
2023-01-21T12:36:50.666Z,100790.53
2023-01-21T12:39:22.238Z,100791.44
2023-01-21T12:42:01.659Z,100797.56
2023-01-21T12:44:36.239Z,100792.28
2023-01-21T12:47:11.159Z,100795.94
2023-01-21T12:50:04.623Z,100807.91
2023-01-21T12:52:40.765Z,100800.41
2023-01-21T12:55:19.433Z,100806.53
2023-01-21T12:57:54.744Z,100801.84
2023-01-21T13:00:28.216Z,100793.13
2023-01-21T13:03:04.289Z,100807.59
2023-01-21T13:05:39.655Z,100802.41
2023-01-21T13:08:33.271Z,100800.25
2023-01-21T13:11:07.015Z,100802.63
2023-01-21T13:13:37.148Z,100802.06
2023-01-21T13:16:09.842Z,100808.66
2023-01-21T13:18:40.244Z,100806.16
2023-01-21T13:21:17.410Z,100807.78
2023-01-21T13:23:49.409Z,100802.34
2023-01-21T13:26:24.212Z,100810.44
2023-01-21T13:28:58.610Z,100801.78
2023-01-21T13:31:32.476Z,100805.97
2023-01-21T13:34:05.859Z,100807.47
2023-01-21T13:36:57.475Z,100807.22
2023-01-21T13:39:33.345Z,100816.72
2023-01-21T13:42:17.286Z,100814.41
2023-01-21T13:45:15.152Z,100813.88
2023-01-21T13:48:12.007Z,100825.97
2023-01-21T13:50:54.673Z,100818.78
2023-01-21T13:53:39.430Z,100807.75
2023-01-21T13:56:22.899Z,100816.03
2023-01-21T13:58:54.652Z,100818.47
2023-01-21T14:01:29.049Z,100818.75
2023-01-21T14:04:04.507Z,100806.47
2023-01-21T14:06:38.076Z,100812.88
2023-01-21T14:09:14.089Z,100813.25
2023-01-21T14:11:45.351Z,100815.94
2023-01-21T14:14:31.357Z,100823.88
2023-01-21T14:17:32.588Z,100813.72
2023-01-21T14:20:18.616Z,100805.84
2023-01-21T14:23:16.120Z,100796.28
2023-01-21T14:26:07.246Z,100812.03
2023-01-21T14:28:40.153Z,100812.38
2023-01-21T14:31:13.437Z,100819.69
2023-01-21T14:33:46.689Z,100823.81
2023-01-21T14:36:19.483Z,100829.50
2023-01-21T14:38:58.709Z,100828.72
2023-01-21T14:41:47.301Z,100824.84
2023-01-21T14:44:37.134Z,100818.69
2023-01-21T14:47:19.559Z,100822.78
2023-01-21T14:49:49.019Z,100831.63
2023-01-21T14:52:19.907Z,100834.09
2023-01-21T14:54:48.746Z,100825.97
2023-01-21T14:57:27.424Z,100830.28
2023-01-21T15:00:02.745Z,100828.03
2023-01-21T15:02:33.391Z,100830.28
2023-01-21T15:05:03.461Z,100827.59
2023-01-21T15:07:36.209Z,100823.50
2023-01-21T15:10:11.354Z,100836.28
2023-01-21T15:12:40.746Z,100842.94
2023-01-21T15:15:31.552Z,100831.56
2023-01-21T15:18:23.108Z,100832.72
2023-01-21T15:20:57.671Z,100840.59
2023-01-21T15:23:39.910Z,100832.56
2023-01-21T15:26:34.450Z,100837.00
2023-01-21T15:29:23.337Z,100832.41
2023-01-21T15:31:51.122Z,100828.88
2023-01-21T15:34:20.575Z,100830.09
2023-01-21T15:36:52.931Z,100831.94
2023-01-21T15:39:29.972Z,100834.09
2023-01-21T15:42:10.525Z,100839.00
2023-01-21T15:44:52.748Z,100839.00
2023-01-21T15:47:41.562Z,100841.97
2023-01-21T15:50:20.955Z,100838.69
2023-01-21T15:53:03.945Z,100842.59
2023-01-21T15:55:58.168Z,100846.88
2023-01-21T15:58:39.557Z,100853.16
2023-01-21T16:01:15.813Z,100851.00
2023-01-21T16:04:05.201Z,100850.94
2023-01-21T16:06:42.582Z,100851.72
2023-01-21T16:09:18.148Z,100853.06
2023-01-21T16:11:59.976Z,100849.72
2023-01-21T16:14:41.463Z,100854.97
2023-01-21T16:17:17.693Z,100842.56
2023-01-21T16:19:48.683Z,100851.78
2023-01-21T16:22:21.483Z,100848.03
2023-01-21T16:24:53.612Z,100851.84
2023-01-21T16:27:25.455Z,100856.91
2023-01-21T16:29:57.259Z,100845.59
2023-01-21T16:32:26.851Z,100847.72
2023-01-21T16:34:55.375Z,100849.94
2023-01-21T16:37:26.172Z,100845.41
2023-01-21T16:39:56.622Z,100849.00
2023-01-21T16:42:32.000Z,100850.38
2023-01-21T16:45:00.242Z,100858.75
2023-01-21T16:47:31.337Z,100855.06
2023-01-21T16:49:59.020Z,100860.56
2023-01-21T16:52:27.965Z,100855.22
2023-01-21T16:54:56.850Z,100858.75
2023-01-21T16:57:31.515Z,100867.22
2023-01-21T17:00:02.273Z,100860.19
2023-01-21T17:02:33.150Z,100866.84
2023-01-21T17:05:04.545Z,100859.81
2023-01-21T17:07:35.376Z,100858.75
2023-01-21T17:10:06.671Z,100859.81
2023-01-21T17:12:36.551Z,100874.44
2023-01-21T17:15:15.597Z,100862.88
2023-01-21T17:17:43.561Z,100859.28
2023-01-21T17:20:36.463Z,100862.97
2023-01-21T17:23:06.748Z,100860.97
2023-01-21T17:25:36.424Z,100864.84
2023-01-21T17:28:19.921Z,100862.25
2023-01-21T17:30:47.804Z,100862.88
2023-01-21T17:33:30.455Z,100857.66
2023-01-21T17:36:10.458Z,100870.00
2023-01-21T17:38:42.666Z,100875.44
2023-01-21T17:41:22.459Z,100865.94
2023-01-21T17:43:55.428Z,100874.97
2023-01-21T17:46:23.698Z,100867.56
2023-01-21T17:48:54.273Z,100869.25
2023-01-21T17:51:24.509Z,100870.53
2023-01-21T17:53:56.392Z,100873.75
2023-01-21T17:56:42.084Z,100860.66
2023-01-21T17:59:38.644Z,100865.16
2023-01-21T18:02:11.048Z,100881.94
2023-01-21T18:04:38.660Z,100880.16
2023-01-21T18:07:16.559Z,100869.56
2023-01-21T18:09:44.260Z,100862.50
2023-01-21T18:12:12.182Z,100870.38
2023-01-21T18:14:41.742Z,100869.69
2023-01-21T18:17:11.162Z,100867.47
2023-01-21T18:19:42.134Z,100874.66
2023-01-21T18:22:21.310Z,100879.97
2023-01-21T18:24:48.877Z,100879.88
2023-01-21T18:27:17.101Z,100880.66
2023-01-21T18:29:46.062Z,100875.69
2023-01-21T18:32:15.366Z,100867.09
2023-01-21T18:34:43.047Z,100880.47
2023-01-21T18:37:15.011Z,100882.03
2023-01-21T18:39:42.904Z,100877.13
2023-01-21T18:42:12.899Z,100877.63
2023-01-21T18:44:40.590Z,100879.19
2023-01-21T18:47:13.465Z,100878.09
2023-01-21T18:49:41.556Z,100881.50
2023-01-21T18:52:11.260Z,100871.31
2023-01-21T18:54:38.811Z,100873.44
2023-01-21T18:57:10.788Z,100871.59
2023-01-21T18:59:38.497Z,100873.31
2023-01-21T19:02:13.700Z,100877.03
2023-01-21T19:04:41.392Z,100889.91
2023-01-21T19:07:14.798Z,100894.19
2023-01-21T19:09:45.937Z,100888.50
2023-01-21T19:12:14.353Z,100890.75
2023-01-21T19:14:42.014Z,100888.63
2023-01-21T19:17:13.635Z,100882.94
2023-01-21T19:19:41.742Z,100890.06
2023-01-21T19:22:13.528Z,100883.06
2023-01-21T19:24:41.198Z,100882.34
2023-01-21T19:27:11.159Z,100875.50
2023-01-21T19:29:38.719Z,100885.91
2023-01-21T19:32:07.945Z,100884.78
2023-01-21T19:34:37.356Z,100888.44
2023-01-21T19:37:05.214Z,100880.94
2023-01-21T19:39:34.386Z,100892.28
2023-01-21T19:42:08.383Z,100881.56
2023-01-21T19:44:36.503Z,100877.88
2023-01-21T19:47:04.426Z,100881.56
2023-01-21T19:49:32.203Z,100882.78
2023-01-21T19:52:01.316Z,100877.13
2023-01-21T19:54:29.143Z,100883.06
2023-01-21T19:56:56.923Z,100873.81
2023-01-21T19:59:24.510Z,100870.66
2023-01-21T20:01:52.187Z,100875.75
2023-01-21T20:04:19.853Z,100871.28
2023-01-21T20:06:47.543Z,100867.09
2023-01-21T20:09:18.805Z,100877.19
2023-01-21T20:11:46.412Z,100870.66
2023-01-21T20:14:14.098Z,100874.81
2023-01-21T20:16:46.065Z,100875.44
2023-01-21T20:19:17.045Z,100874.59
2023-01-21T20:21:59.666Z,100880.41
2023-01-21T20:24:33.726Z,100873.97
2023-01-21T20:27:03.219Z,100873.28
2023-01-21T20:29:30.824Z,100877.56
2023-01-21T20:31:58.545Z,100873.13
2023-01-21T20:34:27.663Z,100872.66
2023-01-21T20:36:56.127Z,100866.25
2023-01-21T20:39:24.185Z,100877.94
2023-01-21T20:41:53.134Z,100861.72
2023-01-21T20:44:20.770Z,100859.72
2023-01-21T20:46:48.644Z,100862.56
2023-01-21T20:49:16.400Z,100858.19
2023-01-21T20:51:43.968Z,100842.03
2023-01-21T20:54:11.546Z,100845.78
2023-01-21T20:56:39.266Z,100847.41
2023-01-21T20:59:10.035Z,100844.19
2023-01-21T21:01:39.348Z,100837.13
2023-01-21T21:04:07.076Z,100846.41
2023-01-21T21:06:34.675Z,100832.56
2023-01-21T21:09:02.384Z,100841.28
2023-01-21T21:11:29.952Z,100833.91
2023-01-21T21:13:58.520Z,100835.72
2023-01-21T21:16:31.751Z,100823.44
2023-01-21T21:19:00.655Z,100826.53
2023-01-21T21:21:29.212Z,100816.31
2023-01-21T21:23:56.839Z,100815.25
2023-01-21T21:26:27.241Z,100820.22
2023-01-21T21:28:55.520Z,100817.25
2023-01-21T21:31:24.171Z,100814.09
2023-01-21T21:33:53.324Z,100821.38
2023-01-21T21:36:23.029Z,100818.59
2023-01-21T21:38:52.127Z,100816.72
2023-01-21T21:41:39.453Z,100813.94
2023-01-21T21:44:07.996Z,100801.47
2023-01-21T21:46:50.975Z,100808.38
2023-01-21T21:49:19.987Z,100813.09
2023-01-21T21:51:47.584Z,100815.03
2023-01-21T21:54:18.356Z,100801.00
2023-01-21T21:56:46.364Z,100807.00
2023-01-21T21:59:14.668Z,100817.94
2023-01-21T22:01:43.544Z,100806.38
2023-01-21T22:04:11.899Z,100805.00
2023-01-21T22:06:41.206Z,100794.56
2023-01-21T22:09:09.545Z,100805.75
2023-01-21T22:11:37.304Z,100806.38
2023-01-21T22:14:05.013Z,100805.91
2023-01-21T22:16:33.396Z,100805.75
2023-01-21T22:19:01.773Z,100807.91
2023-01-21T22:21:32.698Z,100807.16
2023-01-21T22:24:02.716Z,100816.94
2023-01-21T22:26:30.901Z,100802.38
2023-01-21T22:28:58.711Z,100797.88
2023-01-21T22:31:28.972Z,100777.91
2023-01-21T22:33:57.477Z,100798.81
2023-01-21T22:36:26.887Z,100789.53
2023-01-21T22:38:55.202Z,100796.34
2023-01-21T22:41:25.193Z,100798.09
2023-01-21T22:43:53.567Z,100791.53
2023-01-21T22:46:23.014Z,100786.19
2023-01-21T22:48:51.032Z,100776.69
2023-01-21T22:51:21.219Z,100788.19
2023-01-21T22:53:49.789Z,100786.41
2023-01-21T22:56:19.034Z,100778.19
2023-01-21T22:58:48.170Z,100762.28
2023-01-21T23:01:25.397Z,100775.13
2023-01-21T23:03:53.461Z,100770.28
2023-01-21T23:06:21.201Z,100767.56
2023-01-21T23:08:49.186Z,100778.22
2023-01-21T23:11:18.734Z,100759.88
2023-01-21T23:13:49.216Z,100760.16
2023-01-21T23:16:20.911Z,100750.59
2023-01-21T23:18:48.875Z,100758.47
2023-01-21T23:21:18.857Z,100753.28
2023-01-21T23:23:46.553Z,100747.28
2023-01-21T23:26:14.803Z,100755.19
2023-01-21T23:28:43.111Z,100750.66
2023-01-21T23:31:14.635Z,100729.63
2023-01-21T23:33:42.749Z,100733.38
2023-01-21T23:36:13.132Z,100735.38
2023-01-21T23:38:41.764Z,100740.72
2023-01-21T23:41:11.890Z,100732.75
2023-01-21T23:43:39.767Z,100728.75
2023-01-21T23:46:08.267Z,100722.72
2023-01-21T23:48:37.265Z,100727.56
2023-01-21T23:51:06.726Z,100729.84
2023-01-21T23:53:35.145Z,100728.88
2023-01-21T23:56:07.593Z,100736.25
2023-01-21T23:58:35.326Z,100724.25
